createdAt,value
2022-08-17T00:01:26.205Z,100300.53
2022-08-17T00:03:54.762Z,100302.66
2022-08-17T00:06:24.922Z,100304.06
2022-08-17T00:09:00.585Z,100309.53
2022-08-17T00:11:30.983Z,100303.03
2022-08-17T00:14:05.129Z,100298.72
2022-08-17T00:16:56.291Z,100292.66
2022-08-17T00:19:24.446Z,100300.44
2022-08-17T00:22:32.676Z,100298.50
2022-08-17T00:24:39.922Z,100296.91
2022-08-17T00:27:06.407Z,100290.88
2022-08-17T00:29:32.945Z,100292.25
2022-08-17T00:32:01.187Z,100292.72
2022-08-17T00:34:47.569Z,100294.75
2022-08-17T00:37:14.069Z,100288.13
2022-08-17T00:39:40.865Z,100287.44
2022-08-17T00:42:18.867Z,100285.66
2022-08-17T00:44:46.172Z,100293.72
2022-08-17T00:47:13.277Z,100292.59
2022-08-17T00:49:39.999Z,100296.38
2022-08-17T00:52:15.648Z,100294.88
2022-08-17T00:54:46.987Z,100295.00
2022-08-17T00:57:23.399Z,100294.34
2022-08-17T01:00:02.476Z,100295.56
2022-08-17T01:02:40.470Z,100290.00
2022-08-17T01:05:15.314Z,100275.38
2022-08-17T01:07:42.984Z,100278.69
2022-08-17T01:10:59.175Z,100279.59
2022-08-17T01:13:02.413Z,100276.41
2022-08-17T01:15:36.012Z,100277.78
2022-08-17T01:18:05.361Z,100270.81
2022-08-17T01:20:32.543Z,100268.88
2022-08-17T01:23:20.770Z,100275.84
2022-08-17T01:25:56.651Z,100273.56
2022-08-17T01:28:52.438Z,100278.81
2022-08-17T01:31:12.941Z,100282.91
2022-08-17T01:33:39.520Z,100281.31
2022-08-17T01:36:07.476Z,100281.31
2022-08-17T01:38:35.565Z,100281.31
2022-08-17T01:41:08.004Z,100288.25
2022-08-17T01:43:45.209Z,100286.66
2022-08-17T01:46:16.031Z,100280.19
2022-08-17T01:48:43.633Z,100280.97
2022-08-17T01:51:10.291Z,100279.34
2022-08-17T01:53:41.252Z,100283.13
2022-08-17T01:56:13.827Z,100287.69
2022-08-17T01:58:42.087Z,100286.44
2022-08-17T02:01:10.105Z,100291.78
2022-08-17T02:03:38.044Z,100284.97
2022-08-17T02:06:06.096Z,100276.53
2022-08-17T02:09:01.932Z,100281.53
2022-08-17T02:11:32.296Z,100280.84
2022-08-17T02:14:03.256Z,100289.94
2022-08-17T02:16:36.678Z,100296.19
2022-08-17T02:19:07.279Z,100291.38
2022-08-17T02:21:34.222Z,100286.22
2022-08-17T02:24:00.845Z,100284.31
2022-08-17T02:26:27.408Z,100289.75
2022-08-17T02:28:54.322Z,100283.38
2022-08-17T02:31:21.344Z,100281.09
2022-08-17T02:33:56.789Z,100281.63
2022-08-17T02:36:31.351Z,100282.06
2022-08-17T02:38:58.608Z,100271.25
2022-08-17T02:41:25.300Z,100278.66
2022-08-17T02:43:53.147Z,100282.72
2022-08-17T02:46:19.704Z,100276.22
2022-08-17T02:48:46.371Z,100279.53
2022-08-17T02:51:12.876Z,100275.09
2022-08-17T02:53:39.391Z,100269.41
2022-08-17T02:56:06.108Z,100274.75
2022-08-17T02:58:35.579Z,100273.94
2022-08-17T03:01:05.881Z,100274.41
2022-08-17T03:03:32.639Z,100265.88
2022-08-17T03:05:59.195Z,100269.59
2022-08-17T03:08:25.841Z,100266.44
2022-08-17T03:10:52.366Z,100268.09
2022-08-17T03:13:19.035Z,100267.78
2022-08-17T03:15:46.427Z,100254.44
2022-08-17T03:18:24.076Z,100261.03
2022-08-17T03:20:52.295Z,100260.59
2022-08-17T03:23:18.807Z,100260.25
2022-08-17T03:25:52.864Z,100258.63
2022-08-17T03:28:20.454Z,100261.13
2022-08-17T03:30:47.000Z,100262.38
2022-08-17T03:33:13.762Z,100264.84
2022-08-17T03:35:41.072Z,100263.69
2022-08-17T03:38:10.339Z,100266.63
2022-08-17T03:40:58.204Z,100265.03
2022-08-17T03:43:23.613Z,100262.19
2022-08-17T03:46:28.979Z,100260.59
2022-08-17T03:49:14.591Z,100261.41
2022-08-17T03:51:59.906Z,100271.19
2022-08-17T03:54:44.661Z,100266.72
2022-08-17T03:57:12.260Z,100274.44
2022-08-17T03:59:39.460Z,100268.75
2022-08-17T04:02:19.081Z,100272.16
2022-08-17T04:04:45.683Z,100270.03
2022-08-17T04:07:12.334Z,100272.06
2022-08-17T04:09:38.819Z,100265.13
2022-08-17T04:12:05.778Z,100266.38
2022-08-17T04:14:39.280Z,100267.19
2022-08-17T04:17:21.056Z,100264.66
2022-08-17T04:19:47.555Z,100270.34
2022-08-17T04:22:32.945Z,100270.34
2022-08-17T04:25:06.631Z,100273.66
2022-08-17T04:27:33.429Z,100274.38
2022-08-17T04:30:00.327Z,100281.31
2022-08-17T04:33:04.017Z,100292.66
2022-08-17T04:35:18.741Z,100298.34
2022-08-17T04:37:45.569Z,100305.19
2022-08-17T04:40:30.709Z,100296.66
2022-08-17T04:43:10.739Z,100294.25
2022-08-17T04:45:57.303Z,100299.16
2022-08-17T04:48:35.486Z,100307.59
2022-08-17T04:51:09.794Z,100307.59
2022-08-17T04:53:37.750Z,100307.13
2022-08-17T04:56:05.274Z,100304.28
2022-08-17T04:58:33.194Z,100305.91
2022-08-17T05:00:59.944Z,100310.34
2022-08-17T05:03:26.574Z,100300.59
2022-08-17T05:05:53.706Z,100306.63
2022-08-17T05:08:21.575Z,100317.13
2022-08-17T05:10:49.087Z,100317.91
2022-08-17T05:13:27.963Z,100316.66
2022-08-17T05:15:59.690Z,100327.16
2022-08-17T05:18:27.256Z,100322.59
2022-08-17T05:20:53.958Z,100328.97
2022-08-17T05:23:22.100Z,100316.34
2022-08-17T05:25:52.071Z,100326.84
2022-08-17T05:28:24.164Z,100318.22
2022-08-17T05:30:56.717Z,100328.22
2022-08-17T05:33:26.375Z,100323.25
2022-08-17T05:35:54.840Z,100321.09
2022-08-17T05:38:22.596Z,100320.13
2022-08-17T05:40:49.836Z,100319.44
2022-08-17T05:43:38.276Z,100319.44
2022-08-17T05:46:16.144Z,100317.28
2022-08-17T05:48:46.014Z,100322.03
2022-08-17T05:51:27.529Z,100315.47
2022-08-17T05:54:31.775Z,100312.56
2022-08-17T05:57:10.284Z,100313.59
2022-08-17T05:59:48.899Z,100311.91
2022-08-17T06:02:48.295Z,100306.91
2022-08-17T06:05:23.464Z,100305.09
2022-08-17T06:08:00.007Z,100301.69
2022-08-17T06:10:37.861Z,100294.28
2022-08-17T06:13:23.125Z,100299.28
2022-08-17T06:16:33.521Z,100295.53
2022-08-17T06:19:15.987Z,100291.56
2022-08-17T06:21:45.304Z,100299.34
2022-08-17T06:24:53.186Z,100295.34
2022-08-17T06:27:35.678Z,100290.09
2022-08-17T06:30:11.511Z,100293.03
2022-08-17T06:32:41.284Z,100300.09
2022-08-17T06:35:10.473Z,100301.09
2022-08-17T06:37:50.544Z,100295.28
2022-08-17T06:40:38.259Z,100295.81
2022-08-17T06:43:22.995Z,100294.34
2022-08-17T06:46:13.457Z,100293.75
2022-08-17T06:49:00.916Z,100293.53
2022-08-17T06:51:36.325Z,100294.41
2022-08-17T06:54:11.201Z,100296.19
2022-08-17T06:56:59.559Z,100290.69
2022-08-17T06:59:55.030Z,100290.75
2022-08-17T07:02:51.056Z,100297.31
2022-08-17T07:05:32.195Z,100293.19
2022-08-17T07:08:09.222Z,100299.06
2022-08-17T07:10:46.156Z,100299.94
2022-08-17T07:13:31.300Z,100297.25
2022-08-17T07:16:07.573Z,100291.13
2022-08-17T07:18:34.204Z,100285.47
2022-08-17T07:21:26.173Z,100291.84
2022-08-17T07:24:30.666Z,100288.72
2022-08-17T07:27:20.847Z,100288.44
2022-08-17T07:29:56.601Z,100293.06
2022-08-17T07:32:27.528Z,100295.28
2022-08-17T07:35:11.610Z,100295.63
2022-08-17T07:37:53.140Z,100291.84
2022-08-17T07:40:33.428Z,100298.19
2022-08-17T07:43:03.299Z,100298.03
2022-08-17T07:45:52.122Z,100296.63
2022-08-17T07:48:25.853Z,100293.63
2022-08-17T07:50:53.290Z,100300.66
2022-08-17T07:53:25.269Z,100309.69
2022-08-17T07:55:53.567Z,100308.66
2022-08-17T07:58:23.436Z,100318.53
2022-08-17T08:01:18.292Z,100309.47
2022-08-17T08:03:46.219Z,100310.94
2022-08-17T08:06:24.696Z,100313.94
2022-08-17T08:08:54.910Z,100311.69
2022-08-17T08:11:30.537Z,100309.59
2022-08-17T08:14:20.546Z,100314.63
2022-08-17T08:17:22.429Z,100308.13
2022-08-17T08:19:48.924Z,100308.81
2022-08-17T08:22:26.257Z,100301.56
2022-08-17T08:25:07.266Z,100305.78
2022-08-17T08:27:45.868Z,100307.38
2022-08-17T08:30:19.164Z,100305.25
2022-08-17T08:33:17.231Z,100315.06
2022-08-17T08:35:55.332Z,100309.19
2022-08-17T08:38:42.597Z,100311.47
2022-08-17T08:41:40.765Z,100307.47
2022-08-17T08:44:59.926Z,100305.25
2022-08-17T08:47:46.833Z,100299.91
2022-08-17T08:50:37.446Z,100292.88
2022-08-17T08:53:11.731Z,100290.19
2022-08-17T08:56:05.868Z,100300.81
2022-08-17T08:58:48.322Z,100302.59
2022-08-17T09:01:42.136Z,100303.03
2022-08-17T09:04:26.269Z,100307.19
2022-08-17T09:07:24.199Z,100306.03
2022-08-17T09:10:15.219Z,100304.56
2022-08-17T09:12:58.910Z,100310.91
2022-08-17T09:15:44.810Z,100296.97
2022-08-17T09:19:01.184Z,100304.84
2022-08-17T09:21:18.388Z,100296.44
2022-08-17T09:24:00.163Z,100299.28
2022-08-17T09:27:02.686Z,100304.44
2022-08-17T09:29:36.749Z,100298.16
2022-08-17T09:32:41.166Z,100297.03
2022-08-17T09:35:44.284Z,100302.47
2022-08-17T09:38:33.360Z,100291.97
2022-08-17T09:41:08.613Z,100292.91
2022-08-17T09:44:23.425Z,100299.38
2022-08-17T09:46:53.044Z,100291.41
2022-08-17T09:49:30.895Z,100287.84
2022-08-17T09:52:08.502Z,100293.75
2022-08-17T09:54:40.879Z,100302.00
2022-08-17T09:57:37.851Z,100297.63
2022-08-17T10:00:11.920Z,100296.50
2022-08-17T10:02:54.477Z,100302.28
2022-08-17T10:05:23.264Z,100297.75
2022-08-17T10:08:09.539Z,100306.75
2022-08-17T10:11:05.729Z,100302.72
2022-08-17T10:13:41.502Z,100296.38
2022-08-17T10:16:26.121Z,100290.53
2022-08-17T10:19:10.279Z,100296.22
2022-08-17T10:22:01.035Z,100288.88
2022-08-17T10:25:23.263Z,100291.44
2022-08-17T10:28:01.667Z,100292.44
2022-08-17T10:30:33.093Z,100291.16
2022-08-17T10:33:15.412Z,100284.81
2022-08-17T10:35:57.239Z,100287.09
2022-08-17T10:38:39.315Z,100287.28
2022-08-17T10:41:43.701Z,100290.09
2022-08-17T10:44:38.902Z,100289.50
2022-08-17T10:47:16.549Z,100297.06
2022-08-17T10:49:53.631Z,100297.75
2022-08-17T10:52:20.137Z,100297.47
2022-08-17T10:54:58.497Z,100304.91
2022-08-17T10:57:34.149Z,100305.91
2022-08-17T11:00:15.474Z,100297.47
2022-08-17T11:02:48.785Z,100303.22
2022-08-17T11:05:50.278Z,100304.69
2022-08-17T11:08:57.451Z,100313.81
2022-08-17T11:12:00.992Z,100317.47
2022-08-17T11:14:50.727Z,100327.09
2022-08-17T11:17:43.107Z,100330.97
2022-08-17T11:20:47.157Z,100335.31
2022-08-17T11:23:16.961Z,100336.63
2022-08-17T11:25:50.825Z,100335.69
2022-08-17T11:28:23.854Z,100342.94
2022-08-17T11:31:01.358Z,100345.41
2022-08-17T11:33:36.754Z,100347.69
2022-08-17T11:36:23.389Z,100342.34
2022-08-17T11:39:27.470Z,100330.72
2022-08-17T11:41:54.508Z,100327.84
2022-08-17T11:44:29.907Z,100329.00
2022-08-17T11:47:29.846Z,100337.19
2022-08-17T11:50:44.226Z,100345.53
2022-08-17T11:53:50.025Z,100353.53
2022-08-17T11:56:41.084Z,100346.69
2022-08-17T11:59:32.692Z,100343.72
2022-08-17T12:02:34.951Z,100337.38
2022-08-17T12:05:26.016Z,100343.09
2022-08-17T12:07:56.088Z,100346.94
2022-08-17T12:10:31.814Z,100348.25
2022-08-17T12:13:12.752Z,100336.94
2022-08-17T12:15:49.719Z,100343.19
2022-08-17T12:18:24.525Z,100342.84
2022-08-17T12:21:18.264Z,100352.75
2022-08-17T12:23:56.200Z,100344.75
2022-08-17T12:26:30.222Z,100343.78
2022-08-17T12:29:02.603Z,100344.88
2022-08-17T12:31:36.794Z,100350.44
2022-08-17T12:34:04.953Z,100348.47
2022-08-17T12:36:33.257Z,100347.78
2022-08-17T12:39:13.000Z,100341.19
2022-08-17T12:41:45.066Z,100335.03
2022-08-17T12:44:12.170Z,100338.25
2022-08-17T12:46:51.414Z,100333.47
2022-08-17T12:49:26.432Z,100342.38
2022-08-17T12:52:07.078Z,100324.69
2022-08-17T12:54:50.279Z,100329.25
2022-08-17T12:57:42.183Z,100328.09
2022-08-17T13:00:17.602Z,100324.00
2022-08-17T13:02:48.709Z,100329.84
2022-08-17T13:05:27.604Z,100332.53
2022-08-17T13:07:57.250Z,100333.44
2022-08-17T13:10:32.222Z,100322.34
2022-08-17T13:13:04.849Z,100322.72
2022-08-17T13:15:44.630Z,100310.06
2022-08-17T13:18:39.184Z,100299.53
2022-08-17T13:21:23.669Z,100300.03
2022-08-17T13:24:07.823Z,100306.44
2022-08-17T13:26:36.556Z,100295.31
2022-08-17T13:29:25.768Z,100287.47
2022-08-17T13:32:15.993Z,100295.88
2022-08-17T13:34:59.593Z,100299.69
2022-08-17T13:37:36.531Z,100301.25
2022-08-17T13:40:09.125Z,100299.69
2022-08-17T13:42:52.952Z,100304.13
2022-08-17T13:45:35.651Z,100302.56
2022-08-17T13:48:29.265Z,100299.38
2022-08-17T13:50:55.674Z,100301.53
2022-08-17T13:53:37.443Z,100299.69
2022-08-17T13:56:43.799Z,100296.28
2022-08-17T13:59:52.806Z,100299.75
2022-08-17T14:02:15.584Z,100298.25
2022-08-17T14:04:45.343Z,100295.84
2022-08-17T14:07:12.841Z,100288.31
2022-08-17T14:09:58.142Z,100293.88
2022-08-17T14:12:27.278Z,100291.56
2022-08-17T14:14:56.328Z,100296.31
2022-08-17T14:17:24.104Z,100290.06
2022-08-17T14:19:51.582Z,100289.03
2022-08-17T14:22:40.155Z,100291.91
2022-08-17T14:25:10.416Z,100301.41
2022-08-17T14:27:51.776Z,100294.09
2022-08-17T14:30:22.467Z,100287.75
2022-08-17T14:32:51.701Z,100292.13
2022-08-17T14:35:19.440Z,100292.06
2022-08-17T14:37:45.993Z,100298.72
2022-08-17T14:40:15.339Z,100302.56
2022-08-17T14:42:46.041Z,100292.72
2022-08-17T14:45:31.813Z,100296.81
2022-08-17T14:48:04.792Z,100291.47
2022-08-17T14:50:32.191Z,100294.00
2022-08-17T14:53:03.867Z,100295.16
2022-08-17T14:55:31.153Z,100284.88
2022-08-17T14:57:57.686Z,100280.63
2022-08-17T15:00:24.411Z,100285.78
2022-08-17T15:02:54.575Z,100283.31
2022-08-17T15:05:26.683Z,100282.69
2022-08-17T15:07:53.663Z,100279.03
2022-08-17T15:10:20.570Z,100270.63
2022-08-17T15:12:47.472Z,100270.31
2022-08-17T15:15:15.540Z,100270.53
2022-08-17T15:17:44.240Z,100271.50
2022-08-17T15:20:17.662Z,100276.66
2022-08-17T15:22:45.717Z,100270.91
2022-08-17T15:25:13.084Z,100277.16
2022-08-17T15:27:40.377Z,100275.09
2022-08-17T15:30:08.496Z,100273.78
2022-08-17T15:32:38.265Z,100268.03
2022-08-17T15:35:06.580Z,100265.16
2022-08-17T15:37:33.427Z,100264.19
2022-08-17T15:40:03.737Z,100265.84
2022-08-17T15:42:30.410Z,100263.75
2022-08-17T15:44:57.465Z,100264.56
2022-08-17T15:47:24.733Z,100264.56
2022-08-17T15:49:55.418Z,100268.03
2022-08-17T15:52:26.467Z,100271.22
2022-08-17T15:54:56.158Z,100263.97
2022-08-17T15:57:24.547Z,100258.81
2022-08-17T15:59:54.655Z,100256.06
2022-08-17T16:03:15.178Z,100255.03
2022-08-17T16:05:22.043Z,100262.38
2022-08-17T16:07:51.902Z,100263.19
2022-08-17T16:10:19.441Z,100267.31
2022-08-17T16:12:48.132Z,100269.41
2022-08-17T16:15:15.499Z,100265.75
2022-08-17T16:17:42.332Z,100273.06
2022-08-17T16:20:20.902Z,100262.09
2022-08-17T16:22:49.876Z,100258.94
2022-08-17T16:25:49.714Z,100273.41
2022-08-17T16:28:10.254Z,100268.53
2022-08-17T16:30:38.248Z,100270.44
2022-08-17T16:33:05.236Z,100272.63
2022-08-17T16:35:31.835Z,100270.63
2022-08-17T16:37:58.764Z,100273.41
2022-08-17T16:40:27.944Z,100282.72
2022-08-17T16:42:55.475Z,100272.22
2022-08-17T16:45:36.297Z,100285.94
2022-08-17T16:48:02.980Z,100288.50
2022-08-17T16:50:29.598Z,100283.75
2022-08-17T16:53:10.741Z,100284.94
2022-08-17T16:55:38.052Z,100287.31
2022-08-17T16:58:05.859Z,100295.13
2022-08-17T17:00:33.594Z,100300.56
2022-08-17T17:03:22.373Z,100300.16
2022-08-17T17:06:01.471Z,100306.41
2022-08-17T17:08:35.095Z,100315.19
2022-08-17T17:11:15.613Z,100313.69
2022-08-17T17:14:02.126Z,100323.44
2022-08-17T17:16:28.583Z,100325.53
2022-08-17T17:19:17.876Z,100323.47
2022-08-17T17:22:25.144Z,100315.84
2022-08-17T17:25:20.032Z,100320.19
2022-08-17T17:28:01.817Z,100323.34
2022-08-17T17:30:39.819Z,100339.47
2022-08-17T17:33:10.824Z,100337.59
2022-08-17T17:35:50.982Z,100348.16
2022-08-17T17:38:40.415Z,100341.66
2022-08-17T17:41:16.882Z,100362.41
2022-08-17T17:43:43.423Z,100356.53
2022-08-17T17:46:33.811Z,100351.81
2022-08-17T17:49:00.918Z,100354.81
2022-08-17T17:52:07.197Z,100362.34
2022-08-17T17:55:04.391Z,100361.72
2022-08-17T17:57:55.820Z,100362.88
2022-08-17T18:00:26.249Z,100365.41
2022-08-17T18:03:01.931Z,100364.97
2022-08-17T18:06:06.848Z,100382.47
2022-08-17T18:08:36.177Z,100386.94
2022-08-17T18:11:24.038Z,100387.56
2022-08-17T18:13:57.685Z,100411.94
2022-08-17T18:16:27.360Z,100410.50
2022-08-17T18:18:57.639Z,100407.78
2022-08-17T18:21:34.858Z,100408.91
2022-08-17T18:24:04.032Z,100409.88
2022-08-17T18:26:33.498Z,100401.59
2022-08-17T18:29:01.430Z,100401.75
2022-08-17T18:31:28.187Z,100401.13
2022-08-17T18:34:46.067Z,100403.97
2022-08-17T18:37:08.558Z,100408.13
2022-08-17T18:39:37.207Z,100413.66
2022-08-17T18:42:07.653Z,100421.63
2022-08-17T18:44:39.692Z,100414.13
2022-08-17T18:47:25.458Z,100418.53
2022-08-17T18:50:19.375Z,100420.28
2022-08-17T18:52:48.408Z,100406.94
2022-08-17T18:55:20.999Z,100414.56
2022-08-17T18:57:56.705Z,100417.56
2022-08-17T19:00:40.570Z,100421.53
2022-08-17T19:03:16.177Z,100417.22
2022-08-17T19:06:13.737Z,100422.28
2022-08-17T19:08:40.619Z,100425.50
2022-08-17T19:11:15.676Z,100417.06
2022-08-17T19:14:00.934Z,100428.78
2022-08-17T19:16:52.888Z,100424.81
2022-08-17T19:19:30.845Z,100435.91
2022-08-17T19:22:06.867Z,100446.88
2022-08-17T19:24:35.151Z,100452.25
2022-08-17T19:27:16.208Z,100448.31
2022-08-17T19:30:08.048Z,100454.25
2022-08-17T19:32:35.779Z,100464.00
2022-08-17T19:35:05.867Z,100464.59
2022-08-17T19:37:42.204Z,100463.13
2022-08-17T19:40:24.438Z,100468.50
2022-08-17T19:43:41.489Z,100465.47
2022-08-17T19:46:26.348Z,100461.03
2022-08-17T19:48:52.876Z,100460.22
2022-08-17T19:51:40.553Z,100466.69
2022-08-17T19:54:37.974Z,100458.41
2022-08-17T19:57:27.269Z,100459.81
2022-08-17T20:00:02.950Z,100458.19
2022-08-17T20:03:05.871Z,100458.16
2022-08-17T20:06:08.534Z,100451.28
2022-08-17T20:08:29.208Z,100463.66
2022-08-17T20:11:00.650Z,100461.75
2022-08-17T20:13:39.593Z,100469.28
2022-08-17T20:16:06.622Z,100465.97
2022-08-17T20:18:51.615Z,100467.47
2022-08-17T20:21:25.516Z,100469.53
2022-08-17T20:23:54.354Z,100474.13
2022-08-17T20:26:55.539Z,100471.84
2022-08-17T20:29:40.006Z,100474.38
2022-08-17T20:32:23.497Z,100474.19
2022-08-17T20:35:03.806Z,100480.81
2022-08-17T20:37:34.315Z,100471.91
2022-08-17T20:40:00.927Z,100470.78
2022-08-17T20:42:30.974Z,100465.34
2022-08-17T20:45:02.807Z,100466.72
2022-08-17T20:47:35.438Z,100470.63
2022-08-17T20:50:14.965Z,100476.09
2022-08-17T20:52:50.844Z,100481.13
2022-08-17T20:55:51.365Z,100481.03
2022-08-17T20:58:24.338Z,100489.25
2022-08-17T21:00:57.122Z,100500.66
2022-08-17T21:03:23.794Z,100495.06
2022-08-17T21:06:00.242Z,100500.56
2022-08-17T21:08:53.187Z,100506.72
2022-08-17T21:12:02.364Z,100508.00
2022-08-17T21:14:23.791Z,100505.47
2022-08-17T21:17:29.578Z,100508.44
2022-08-17T21:20:13.302Z,100507.63
2022-08-17T21:22:56.908Z,100497.94
2022-08-17T21:25:41.296Z,100491.09
2022-08-17T21:28:21.799Z,100489.50
2022-08-17T21:31:02.466Z,100495.47
2022-08-17T21:33:32.169Z,100491.13
2022-08-17T21:36:15.126Z,100500.34
2022-08-17T21:38:48.750Z,100504.56
2022-08-17T21:41:22.112Z,100497.34
2022-08-17T21:43:51.360Z,100503.16
2022-08-17T21:46:28.819Z,100514.34
2022-08-17T21:49:02.180Z,100511.50
2022-08-17T21:51:30.839Z,100515.25
2022-08-17T21:54:01.259Z,100510.91
2022-08-17T21:56:32.955Z,100511.81
2022-08-17T21:59:04.286Z,100514.31
2022-08-17T22:01:35.095Z,100525.38
2022-08-17T22:04:11.561Z,100526.28
2022-08-17T22:06:43.110Z,100525.06
2022-08-17T22:09:32.031Z,100527.22
2022-08-17T22:12:11.316Z,100533.00
2022-08-17T22:14:55.966Z,100540.75
2022-08-17T22:17:34.370Z,100545.75
2022-08-17T22:20:14.222Z,100541.66
2022-08-17T22:23:05.109Z,100549.88
2022-08-17T22:25:36.161Z,100549.50
2022-08-17T22:28:09.084Z,100540.38
2022-08-17T22:30:40.176Z,100544.13
2022-08-17T22:33:45.777Z,100544.66
2022-08-17T22:36:37.272Z,100545.19
2022-08-17T22:39:07.438Z,100545.66
2022-08-17T22:41:55.823Z,100548.25
2022-08-17T22:44:29.452Z,100553.16
2022-08-17T22:47:11.327Z,100553.59
2022-08-17T22:49:54.085Z,100554.84
2022-08-17T22:53:02.361Z,100546.84
2022-08-17T22:55:51.680Z,100554.59
2022-08-17T22:58:42.233Z,100558.00
2022-08-17T23:01:32.623Z,100567.88
2022-08-17T23:04:08.467Z,100569.13
2022-08-17T23:06:37.999Z,100570.81
2022-08-17T23:09:06.823Z,100568.50
2022-08-17T23:11:48.703Z,100563.34
2022-08-17T23:14:19.181Z,100560.50
2022-08-17T23:16:46.599Z,100555.69
2022-08-17T23:19:16.729Z,100558.66
2022-08-17T23:21:47.106Z,100555.91
2022-08-17T23:24:21.660Z,100554.03
2022-08-17T23:26:48.298Z,100555.28
2022-08-17T23:29:14.929Z,100555.38
2022-08-17T23:31:41.671Z,100546.44
2022-08-17T23:34:13.985Z,100543.34
2022-08-17T23:36:42.004Z,100539.69
2022-08-17T23:39:08.554Z,100543.44
2022-08-17T23:41:39.829Z,100549.19
2022-08-17T23:44:07.256Z,100536.69
2022-08-17T23:46:34.600Z,100535.50
2022-08-17T23:49:01.371Z,100542.09
2022-08-17T23:51:33.435Z,100542.19
2022-08-17T23:54:11.614Z,100550.38
2022-08-17T23:56:47.136Z,100555.28
2022-08-17T23:59:16.255Z,100559.00
